Terminal Aerodrome Forecast
Issued by NWS

Home | Current Version | Previous Version | Text Only | Print | Product List | Glossary On
Versions: 1 2 3 4 5 6 7 8 9 10 11 12 13 14 15
406
FTUS43 KILX 280538 AAB
TAFDEC
TAF AMD
KDEC 280538Z 2806/0106 14014KT P6SM -SHRA VCTS OVC080CB
     FM281000 18011KT P6SM BKN015
     FM281500 19016G26KT P6SM BKN015
     FM010200 22013G27KT 6SM -SHRA VCTS OVC035CB WS009/22045KT=

USA.gov is the U.S. government's official web portal to all federal, state and local government web resources and services.